sensor_id;sensor_type;location;lat;lon;timestamp;temperature;humidity
10453;DHT22;5274;51.992;8.518;2022-08-18T00:00:40;18.60;99.90
10453;DHT22;5274;51.992;8.518;2022-08-18T00:03:07;18.50;99.90
10453;DHT22;5274;51.992;8.518;2022-08-18T00:05:34;19.50;99.90
10453;DHT22;5274;51.992;8.518;2022-08-18T00:08:00;18.50;99.90
10453;DHT22;5274;51.992;8.518;2022-08-18T00:10:26;18.40;99.90
10453;DHT22;5274;51.992;8.518;2022-08-18T00:12:52;18.40;99.90
10453;DHT22;5274;51.992;8.518;2022-08-18T00:15:19;18.30;99.90
10453;DHT22;5274;51.992;8.518;2022-08-18T00:17:44;18.20;99.90
10453;DHT22;5274;51.992;8.518;2022-08-18T00:20:17;18.20;99.90
10453;DHT22;5274;51.992;8.518;2022-08-18T00:22:43;18.20;99.90
10453;DHT22;5274;51.992;8.518;2022-08-18T00:25:12;18.10;99.90
10453;DHT22;5274;51.992;8.518;2022-08-18T00:27:38;18.10;99.90
10453;DHT22;5274;51.992;8.518;2022-08-18T00:30:08;18.10;99.90
10453;DHT22;5274;51.992;8.518;2022-08-18T00:32:38;18.00;99.90
10453;DHT22;5274;51.992;8.518;2022-08-18T00:35:13;18.10;99.90
10453;DHT22;5274;51.992;8.518;2022-08-18T00:37:41;18.00;99.90
10453;DHT22;5274;51.992;8.518;2022-08-18T00:40:09;18.00;99.90
10453;DHT22;5274;51.992;8.518;2022-08-18T00:42:43;18.00;99.90
10453;DHT22;5274;51.992;8.518;2022-08-18T00:45:13;18.00;99.90
10453;DHT22;5274;51.992;8.518;2022-08-18T00:47:39;18.00;99.90
10453;DHT22;5274;51.992;8.518;2022-08-18T00:50:05;18.00;99.90
10453;DHT22;5274;51.992;8.518;2022-08-18T00:52:31;18.00;99.90
10453;DHT22;5274;51.992;8.518;2022-08-18T00:54:58;18.00;99.90
10453;DHT22;5274;51.992;8.518;2022-08-18T00:57:26;17.90;99.90
10453;DHT22;5274;51.992;8.518;2022-08-18T01:00:02;17.80;99.90
10453;DHT22;5274;51.992;8.518;2022-08-18T01:02:40;17.80;99.90
10453;DHT22;5274;51.992;8.518;2022-08-18T01:05:22;17.80;99.90
10453;DHT22;5274;51.992;8.518;2022-08-18T01:07:49;17.70;99.90
10453;DHT22;5274;51.992;8.518;2022-08-18T01:10:20;17.70;99.90
10453;DHT22;5274;51.992;8.518;2022-08-18T01:12:51;17.70;99.90
10453;DHT22;5274;51.992;8.518;2022-08-18T01:15:17;17.70;99.90
10453;DHT22;5274;51.992;8.518;2022-08-18T01:17:44;17.60;99.90
10453;DHT22;5274;51.992;8.518;2022-08-18T01:20:33;17.60;99.90
10453;DHT22;5274;51.992;8.518;2022-08-18T01:23:20;17.60;99.90
10453;DHT22;5274;51.992;8.518;2022-08-18T01:25:47;17.60;99.90
10453;DHT22;5274;51.992;8.518;2022-08-18T01:28:42;17.60;99.90
10453;DHT22;5274;51.992;8.518;2022-08-18T01:31:10;17.60;99.90
10453;DHT22;5274;51.992;8.518;2022-08-18T01:33:43;17.60;99.90
10453;DHT22;5274;51.992;8.518;2022-08-18T01:36:17;17.50;99.90
10453;DHT22;5274;51.992;8.518;2022-08-18T01:38:50;17.50;99.90
10453;DHT22;5274;51.992;8.518;2022-08-18T01:41:20;17.40;99.90
10453;DHT22;5274;51.992;8.518;2022-08-18T01:43:46;17.40;99.90
10453;DHT22;5274;51.992;8.518;2022-08-18T01:46:12;17.40;99.90
10453;DHT22;5274;51.992;8.518;2022-08-18T01:48:38;17.40;99.90
10453;DHT22;5274;51.992;8.518;2022-08-18T01:51:08;17.40;99.90
10453;DHT22;5274;51.992;8.518;2022-08-18T01:53:35;17.50;99.90
10453;DHT22;5274;51.992;8.518;2022-08-18T01:56:01;17.40;99.90
10453;DHT22;5274;51.992;8.518;2022-08-18T01:58:30;17.40;99.90
10453;DHT22;5274;51.992;8.518;2022-08-18T02:00:57;17.30;99.90
10453;DHT22;5274;51.992;8.518;2022-08-18T02:03:29;17.30;99.90
10453;DHT22;5274;51.992;8.518;2022-08-18T02:05:58;17.30;99.90
10453;DHT22;5274;51.992;8.518;2022-08-18T02:08:25;17.30;99.90
10453;DHT22;5274;51.992;8.518;2022-08-18T02:10:50;17.30;99.90
10453;DHT22;5274;51.992;8.518;2022-08-18T02:13:16;17.20;99.90
10453;DHT22;5274;51.992;8.518;2022-08-18T02:15:42;17.30;99.90
10453;DHT22;5274;51.992;8.518;2022-08-18T02:18:15;17.20;99.90
10453;DHT22;5274;51.992;8.518;2022-08-18T02:20:42;17.20;99.90
10453;DHT22;5274;51.992;8.518;2022-08-18T02:23:09;17.20;99.90
10453;DHT22;5274;51.992;8.518;2022-08-18T02:25:35;17.30;99.90
10453;DHT22;5274;51.992;8.518;2022-08-18T02:28:01;17.30;99.90
10453;DHT22;5274;51.992;8.518;2022-08-18T02:30:27;17.30;99.90
10453;DHT22;5274;51.992;8.518;2022-08-18T02:32:52;17.30;99.90
10453;DHT22;5274;51.992;8.518;2022-08-18T02:35:18;17.30;99.90
10453;DHT22;5274;51.992;8.518;2022-08-18T02:37:43;17.40;99.90
10453;DHT22;5274;51.992;8.518;2022-08-18T02:40:13;17.40;99.90
10453;DHT22;5274;51.992;8.518;2022-08-18T02:42:39;17.40;99.90
10453;DHT22;5274;51.992;8.518;2022-08-18T02:45:05;17.40;99.90
10453;DHT22;5274;51.992;8.518;2022-08-18T02:47:31;17.50;99.90
10453;DHT22;5274;51.992;8.518;2022-08-18T02:49:56;17.50;99.90
10453;DHT22;5274;51.992;8.518;2022-08-18T02:52:22;17.50;99.90
10453;DHT22;5274;51.992;8.518;2022-08-18T02:54:49;17.60;99.90
10453;DHT22;5274;51.992;8.518;2022-08-18T02:57:14;17.60;99.90
10453;DHT22;5274;51.992;8.518;2022-08-18T02:59:40;17.70;99.90
10453;DHT22;5274;51.992;8.518;2022-08-18T03:02:07;17.70;99.90
10453;DHT22;5274;51.992;8.518;2022-08-18T03:04:33;17.70;99.90
10453;DHT22;5274;51.992;8.518;2022-08-18T03:07:02;17.80;99.90
10453;DHT22;5274;51.992;8.518;2022-08-18T03:09:30;17.80;99.90
10453;DHT22;5274;51.992;8.518;2022-08-18T03:11:56;17.70;99.90
10453;DHT22;5274;51.992;8.518;2022-08-18T03:14:23;17.80;99.90
10453;DHT22;5274;51.992;8.518;2022-08-18T03:16:48;17.80;99.90
10453;DHT22;5274;51.992;8.518;2022-08-18T03:19:14;17.90;99.90
10453;DHT22;5274;51.992;8.518;2022-08-18T03:21:42;17.90;99.90
10453;DHT22;5274;51.992;8.518;2022-08-18T03:24:08;17.80;99.90
10453;DHT22;5274;51.992;8.518;2022-08-18T03:26:34;17.90;99.90
10453;DHT22;5274;51.992;8.518;2022-08-18T03:29:00;18.00;99.90
10453;DHT22;5274;51.992;8.518;2022-08-18T03:31:28;18.00;99.90
10453;DHT22;5274;51.992;8.518;2022-08-18T03:33:55;17.90;99.90
10453;DHT22;5274;51.992;8.518;2022-08-18T03:36:23;18.00;99.90
10453;DHT22;5274;51.992;8.518;2022-08-18T03:38:50;18.00;99.90
10453;DHT22;5274;51.992;8.518;2022-08-18T03:41:19;18.00;99.90
10453;DHT22;5274;51.992;8.518;2022-08-18T03:43:47;18.00;99.90
10453;DHT22;5274;51.992;8.518;2022-08-18T03:46:14;18.00;99.90
10453;DHT22;5274;51.992;8.518;2022-08-18T03:48:42;18.00;99.90
10453;DHT22;5274;51.992;8.518;2022-08-18T03:51:16;18.00;99.90
10453;DHT22;5274;51.992;8.518;2022-08-18T03:53:44;18.00;99.90
10453;DHT22;5274;51.992;8.518;2022-08-18T03:56:12;18.00;99.90
10453;DHT22;5274;51.992;8.518;2022-08-18T03:58:49;18.00;99.90
10453;DHT22;5274;51.992;8.518;2022-08-18T04:01:17;18.00;99.90
10453;DHT22;5274;51.992;8.518;2022-08-18T04:03:44;18.00;99.90
10453;DHT22;5274;51.992;8.518;2022-08-18T04:06:15;17.90;99.90
10453;DHT22;5274;51.992;8.518;2022-08-18T04:08:41;18.00;99.90
10453;DHT22;5274;51.992;8.518;2022-08-18T04:11:07;18.00;99.90
10453;DHT22;5274;51.992;8.518;2022-08-18T04:13:33;18.00;99.90
10453;DHT22;5274;51.992;8.518;2022-08-18T04:16:01;18.00;99.90
10453;DHT22;5274;51.992;8.518;2022-08-18T04:18:27;17.90;99.90
10453;DHT22;5274;51.992;8.518;2022-08-18T04:20:52;17.90;99.90
10453;DHT22;5274;51.992;8.518;2022-08-18T04:23:18;17.90;99.90
10453;DHT22;5274;51.992;8.518;2022-08-18T04:25:43;17.90;99.90
10453;DHT22;5274;51.992;8.518;2022-08-18T04:28:09;17.80;99.90
10453;DHT22;5274;51.992;8.518;2022-08-18T04:30:35;17.80;99.90
10453;DHT22;5274;51.992;8.518;2022-08-18T04:33:01;17.90;99.90
10453;DHT22;5274;51.992;8.518;2022-08-18T04:35:27;17.80;99.90
10453;DHT22;5274;51.992;8.518;2022-08-18T04:37:53;17.80;99.90
10453;DHT22;5274;51.992;8.518;2022-08-18T04:40:18;17.70;99.90
10453;DHT22;5274;51.992;8.518;2022-08-18T04:42:44;17.70;99.90
10453;DHT22;5274;51.992;8.518;2022-08-18T04:45:09;17.60;99.90
10453;DHT22;5274;51.992;8.518;2022-08-18T04:47:38;17.50;99.90
10453;DHT22;5274;51.992;8.518;2022-08-18T04:50:06;17.50;99.90
10453;DHT22;5274;51.992;8.518;2022-08-18T04:52:32;17.60;99.90
10453;DHT22;5274;51.992;8.518;2022-08-18T04:55:16;17.60;99.90
10453;DHT22;5274;51.992;8.518;2022-08-18T04:57:41;17.60;99.90
10453;DHT22;5274;51.992;8.518;2022-08-18T05:00:08;17.60;99.90
10453;DHT22;5274;51.992;8.518;2022-08-18T05:02:37;17.60;99.90
10453;DHT22;5274;51.992;8.518;2022-08-18T05:05:03;17.60;99.90
10453;DHT22;5274;51.992;8.518;2022-08-18T05:07:29;17.50;99.90
10453;DHT22;5274;51.992;8.518;2022-08-18T05:09:55;17.50;99.90
10453;DHT22;5274;51.992;8.518;2022-08-18T05:12:20;17.60;99.90
10453;DHT22;5274;51.992;8.518;2022-08-18T05:14:46;17.70;99.90
10453;DHT22;5274;51.992;8.518;2022-08-18T05:17:13;17.70;99.90
10453;DHT22;5274;51.992;8.518;2022-08-18T05:19:39;17.70;99.90
10453;DHT22;5274;51.992;8.518;2022-08-18T05:22:05;17.60;99.90
10453;DHT22;5274;51.992;8.518;2022-08-18T05:24:32;17.70;99.90
10453;DHT22;5274;51.992;8.518;2022-08-18T05:27:00;17.70;99.90
10453;DHT22;5274;51.992;8.518;2022-08-18T05:29:25;17.70;99.90
10453;DHT22;5274;51.992;8.518;2022-08-18T05:31:52;17.70;99.90
10453;DHT22;5274;51.992;8.518;2022-08-18T05:34:19;17.80;99.90
10453;DHT22;5274;51.992;8.518;2022-08-18T05:39:24;18.00;99.90
10453;DHT22;5274;51.992;8.518;2022-08-18T05:42:05;17.90;99.90
10453;DHT22;5274;51.992;8.518;2022-08-18T05:44:34;18.00;99.90
10453;DHT22;5274;51.992;8.518;2022-08-18T05:47:10;17.90;99.90
10453;DHT22;5274;51.992;8.518;2022-08-18T05:49:37;18.00;99.90
10453;DHT22;5274;51.992;8.518;2022-08-18T05:52:06;18.50;99.90
10453;DHT22;5274;51.992;8.518;2022-08-18T05:54:40;18.00;99.90
10453;DHT22;5274;51.992;8.518;2022-08-18T05:57:30;17.90;99.90
10453;DHT22;5274;51.992;8.518;2022-08-18T05:59:57;18.00;99.90
10453;DHT22;5274;51.992;8.518;2022-08-18T06:02:36;18.00;99.90
10453;DHT22;5274;51.992;8.518;2022-08-18T06:05:07;18.10;99.90
10453;DHT22;5274;51.992;8.518;2022-08-18T06:07:47;18.10;99.90
10453;DHT22;5274;51.992;8.518;2022-08-18T06:10:13;18.10;99.90
10453;DHT22;5274;51.992;8.518;2022-08-18T06:12:42;18.10;99.90
10453;DHT22;5274;51.992;8.518;2022-08-18T06:18:27;18.30;99.90
10453;DHT22;5274;51.992;8.518;2022-08-18T06:21:12;18.30;99.90
10453;DHT22;5274;51.992;8.518;2022-08-18T06:24:15;18.30;99.90
10453;DHT22;5274;51.992;8.518;2022-08-18T06:27:08;18.40;99.90
10453;DHT22;5274;51.992;8.518;2022-08-18T06:30:07;18.50;99.90
10453;DHT22;5274;51.992;8.518;2022-08-18T06:33:07;18.40;99.90
10453;DHT22;5274;51.992;8.518;2022-08-18T06:35:49;18.40;99.90
10453;DHT22;5274;51.992;8.518;2022-08-18T06:38:42;18.50;99.90
10453;DHT22;5274;51.992;8.518;2022-08-18T06:41:16;18.50;99.90
10453;DHT22;5274;51.992;8.518;2022-08-18T06:44:03;18.40;99.90
10453;DHT22;5274;51.992;8.518;2022-08-18T06:49:04;18.60;99.90
10453;DHT22;5274;51.992;8.518;2022-08-18T06:51:31;18.70;99.90
10453;DHT22;5274;51.992;8.518;2022-08-18T06:54:07;18.90;99.90
10453;DHT22;5274;51.992;8.518;2022-08-18T06:59:28;19.20;99.90
10453;DHT22;5274;51.992;8.518;2022-08-18T07:02:35;19.40;99.90
10453;DHT22;5274;51.992;8.518;2022-08-18T07:04:59;19.40;99.90
10453;DHT22;5274;51.992;8.518;2022-08-18T07:09:56;19.40;99.90
10453;DHT22;5274;51.992;8.518;2022-08-18T07:12:25;19.60;99.90
10453;DHT22;5274;51.992;8.518;2022-08-18T07:14:54;19.80;99.90
10453;DHT22;5274;51.992;8.518;2022-08-18T07:17:29;19.90;99.90
10453;DHT22;5274;51.992;8.518;2022-08-18T07:20:06;19.90;99.90
10453;DHT22;5274;51.992;8.518;2022-08-18T07:22:51;19.80;99.90
10453;DHT22;5274;51.992;8.518;2022-08-18T07:25:41;19.70;99.90
10453;DHT22;5274;51.992;8.518;2022-08-18T07:28:30;19.90;99.90
10453;DHT22;5274;51.992;8.518;2022-08-18T07:31:33;20.20;99.90
10453;DHT22;5274;51.992;8.518;2022-08-18T07:34:05;20.80;99.90
10453;DHT22;5274;51.992;8.518;2022-08-18T07:36:38;21.30;99.90
10453;DHT22;5274;51.992;8.518;2022-08-18T07:39:12;21.00;99.70
10453;DHT22;5274;51.992;8.518;2022-08-18T07:41:43;21.50;92.40
10453;DHT22;5274;51.992;8.518;2022-08-18T07:44:24;21.70;45.60
10453;DHT22;5274;51.992;8.518;2022-08-18T07:50:05;21.70;22.50
10453;DHT22;5274;51.992;8.518;2022-08-18T07:52:36;21.80;33.10
10453;DHT22;5274;51.992;8.518;2022-08-18T07:55:09;22.00;27.10
10453;DHT22;5274;51.992;8.518;2022-08-18T08:00:16;22.10;27.80
10453;DHT22;5274;51.992;8.518;2022-08-18T08:05:51;21.80;28.20
10453;DHT22;5274;51.992;8.518;2022-08-18T08:08:52;21.80;21.80
10453;DHT22;5274;51.992;8.518;2022-08-18T08:11:40;21.70;19.70
10453;DHT22;5274;51.992;8.518;2022-08-18T08:14:36;21.50;40.80
10453;DHT22;5274;51.992;8.518;2022-08-18T08:17:24;21.60;43.60
10453;DHT22;5274;51.992;8.518;2022-08-18T08:20:21;21.90;34.60
10453;DHT22;5274;51.992;8.518;2022-08-18T08:36:40;21.40;55.50
10453;DHT22;5274;51.992;8.518;2022-08-18T08:39:19;21.50;62.70
10453;DHT22;5274;51.992;8.518;2022-08-18T08:41:56;21.30;63.80
10453;DHT22;5274;51.992;8.518;2022-08-18T08:44:33;21.10;94.00
10453;DHT22;5274;51.992;8.518;2022-08-18T08:47:09;21.20;92.40
10453;DHT22;5274;51.992;8.518;2022-08-18T08:49:51;21.10;99.90
10453;DHT22;5274;51.992;8.518;2022-08-18T08:52:23;21.00;99.90
10453;DHT22;5274;51.992;8.518;2022-08-18T08:54:59;21.20;99.90
10453;DHT22;5274;51.992;8.518;2022-08-18T08:57:37;21.10;99.90
10453;DHT22;5274;51.992;8.518;2022-08-18T09:00:08;21.10;99.90
10453;DHT22;5274;51.992;8.518;2022-08-18T09:02:56;20.90;99.90
10453;DHT22;5274;51.992;8.518;2022-08-18T09:05:33;20.90;99.90
10453;DHT22;5274;51.992;8.518;2022-08-18T09:08:21;20.70;99.90
10453;DHT22;5274;51.992;8.518;2022-08-18T09:22:12;21.10;99.90
10453;DHT22;5274;51.992;8.518;2022-08-18T09:24:46;21.10;99.90
10453;DHT22;5274;51.992;8.518;2022-08-18T09:27:22;21.20;99.90
10453;DHT22;5274;51.992;8.518;2022-08-18T09:37:25;21.10;99.90
10453;DHT22;5274;51.992;8.518;2022-08-18T09:40:08;21.70;91.00
10453;DHT22;5274;51.992;8.518;2022-08-18T09:43:04;22.00;45.10
10453;DHT22;5274;51.992;8.518;2022-08-18T09:48:28;22.90;1.00
10453;DHT22;5274;51.992;8.518;2022-08-18T10:07:47;24.60;1.00
10453;DHT22;5274;51.992;8.518;2022-08-18T10:10:43;24.90;1.00
10453;DHT22;5274;51.992;8.518;2022-08-18T10:13:28;25.20;1.00
10453;DHT22;5274;51.992;8.518;2022-08-18T10:19:03;25.10;1.00
10453;DHT22;5274;51.992;8.518;2022-08-18T10:24:51;24.60;1.00
10453;DHT22;5274;51.992;8.518;2022-08-18T10:27:48;24.70;1.00
10453;DHT22;5274;51.992;8.518;2022-08-18T10:33:02;24.60;1.00
10453;DHT22;5274;51.992;8.518;2022-08-18T10:38:22;24.20;1.00
10453;DHT22;5274;51.992;8.518;2022-08-18T10:40:57;24.40;1.00
10453;DHT22;5274;51.992;8.518;2022-08-18T10:43:34;24.70;1.00
10453;DHT22;5274;51.992;8.518;2022-08-18T10:46:01;25.10;1.00
10453;DHT22;5274;51.992;8.518;2022-08-18T10:48:30;24.30;1.00
10453;DHT22;5274;51.992;8.518;2022-08-18T10:54:30;24.60;1.00
10453;DHT22;5274;51.992;8.518;2022-08-18T11:00:01;25.40;1.00
10453;DHT22;5274;51.992;8.518;2022-08-18T11:05:25;26.20;1.00
10453;DHT22;5274;51.992;8.518;2022-08-18T11:08:07;25.90;1.00
10453;DHT22;5274;51.992;8.518;2022-08-18T11:10:45;25.70;1.00
10453;DHT22;5274;51.992;8.518;2022-08-18T11:13:52;26.00;1.00
10453;DHT22;5274;51.992;8.518;2022-08-18T11:19:20;25.20;1.00
10453;DHT22;5274;51.992;8.518;2022-08-18T11:21:51;25.90;1.00
10453;DHT22;5274;51.992;8.518;2022-08-18T11:24:28;25.80;1.00
10453;DHT22;5274;51.992;8.518;2022-08-18T11:27:04;25.80;1.00
10453;DHT22;5274;51.992;8.518;2022-08-18T11:29:39;26.20;1.00
10453;DHT22;5274;51.992;8.518;2022-08-18T11:35:00;26.60;1.00
10453;DHT22;5274;51.992;8.518;2022-08-18T11:37:48;26.50;1.00
10453;DHT22;5274;51.992;8.518;2022-08-18T11:42:50;26.00;1.00
10453;DHT22;5274;51.992;8.518;2022-08-18T11:45:20;26.20;1.00
10453;DHT22;5274;51.992;8.518;2022-08-18T11:48:31;25.90;1.00
10453;DHT22;5274;51.992;8.518;2022-08-18T11:51:00;26.00;1.00
10453;DHT22;5274;51.992;8.518;2022-08-18T11:58:41;25.90;1.00
10453;DHT22;5274;51.992;8.518;2022-08-18T12:06:58;25.50;1.00
10453;DHT22;5274;51.992;8.518;2022-08-18T12:09:36;26.10;1.00
10453;DHT22;5274;51.992;8.518;2022-08-18T12:12:23;27.10;1.00
10453;DHT22;5274;51.992;8.518;2022-08-18T12:15:00;27.20;1.00
10453;DHT22;5274;51.992;8.518;2022-08-18T12:17:28;28.20;1.00
10453;DHT22;5274;51.992;8.518;2022-08-18T12:19:55;29.20;1.00
10453;DHT22;5274;51.992;8.518;2022-08-18T12:22:28;30.10;1.00
10453;DHT22;5274;51.992;8.518;2022-08-18T12:24:56;30.70;1.00
10453;DHT22;5274;51.992;8.518;2022-08-18T12:27:23;29.90;99.90
10453;DHT22;5274;51.992;8.518;2022-08-18T12:29:50;28.90;99.90
10453;DHT22;5274;51.992;8.518;2022-08-18T12:32:17;29.20;99.90
10453;DHT22;5274;51.992;8.518;2022-08-18T12:34:44;27.80;1.00
10453;DHT22;5274;51.992;8.518;2022-08-18T12:37:14;27.90;1.00
10453;DHT22;5274;51.992;8.518;2022-08-18T12:39:40;28.00;1.00
10453;DHT22;5274;51.992;8.518;2022-08-18T12:42:06;27.50;1.00
10453;DHT22;5274;51.992;8.518;2022-08-18T12:44:31;27.70;1.00
10453;DHT22;5274;51.992;8.518;2022-08-18T12:46:57;28.20;1.00
10453;DHT22;5274;51.992;8.518;2022-08-18T12:49:25;28.70;1.00
10453;DHT22;5274;51.992;8.518;2022-08-18T12:51:51;29.10;1.00
10453;DHT22;5274;51.992;8.518;2022-08-18T12:54:18;28.90;99.90
10453;DHT22;5274;51.992;8.518;2022-08-18T12:56:46;29.40;1.00
10453;DHT22;5274;51.992;8.518;2022-08-18T12:59:12;30.60;99.90
10453;DHT22;5274;51.992;8.518;2022-08-18T13:01:39;30.70;99.90
10453;DHT22;5274;51.992;8.518;2022-08-18T13:04:04;30.50;99.90
10453;DHT22;5274;51.992;8.518;2022-08-18T13:06:33;30.20;99.90
10453;DHT22;5274;51.992;8.518;2022-08-18T13:08:59;30.10;99.90
10453;DHT22;5274;51.992;8.518;2022-08-18T13:11:25;29.80;99.90
10453;DHT22;5274;51.992;8.518;2022-08-18T13:13:52;29.20;99.90
10453;DHT22;5274;51.992;8.518;2022-08-18T13:16:18;31.20;99.90
10453;DHT22;5274;51.992;8.518;2022-08-18T13:18:44;31.90;99.90
10453;DHT22;5274;51.992;8.518;2022-08-18T13:21:14;32.70;99.90
10453;DHT22;5274;51.992;8.518;2022-08-18T13:23:40;31.70;99.90
10453;DHT22;5274;51.992;8.518;2022-08-18T13:26:32;30.80;99.90
10453;DHT22;5274;51.992;8.518;2022-08-18T13:28:56;31.00;99.90
10453;DHT22;5274;51.992;8.518;2022-08-18T13:31:22;30.60;99.90
10453;DHT22;5274;51.992;8.518;2022-08-18T13:33:48;30.90;99.90
10453;DHT22;5274;51.992;8.518;2022-08-18T13:36:15;31.20;99.90
10453;DHT22;5274;51.992;8.518;2022-08-18T13:38:40;31.20;99.90
10453;DHT22;5274;51.992;8.518;2022-08-18T13:41:07;30.20;99.90
10453;DHT22;5274;51.992;8.518;2022-08-18T13:43:36;30.20;99.90
10453;DHT22;5274;51.992;8.518;2022-08-18T13:46:04;29.40;99.90
10453;DHT22;5274;51.992;8.518;2022-08-18T13:48:31;28.90;99.90
10453;DHT22;5274;51.992;8.518;2022-08-18T13:50:57;28.80;99.90
10453;DHT22;5274;51.992;8.518;2022-08-18T13:53:24;28.80;99.90
10453;DHT22;5274;51.992;8.518;2022-08-18T13:55:51;28.70;99.90
10453;DHT22;5274;51.992;8.518;2022-08-18T13:58:17;28.90;99.90
10453;DHT22;5274;51.992;8.518;2022-08-18T14:00:43;29.60;99.90
10453;DHT22;5274;51.992;8.518;2022-08-18T14:03:09;31.20;99.90
10453;DHT22;5274;51.992;8.518;2022-08-18T14:05:35;32.10;99.90
10453;DHT22;5274;51.992;8.518;2022-08-18T14:08:02;32.10;99.90
10453;DHT22;5274;51.992;8.518;2022-08-18T14:10:28;33.30;99.90
10453;DHT22;5274;51.992;8.518;2022-08-18T14:12:56;33.10;99.90
10453;DHT22;5274;51.992;8.518;2022-08-18T14:15:22;32.60;99.90
10453;DHT22;5274;51.992;8.518;2022-08-18T14:17:48;33.50;99.90
10453;DHT22;5274;51.992;8.518;2022-08-18T14:20:14;33.80;99.90
10453;DHT22;5274;51.992;8.518;2022-08-18T14:22:59;33.30;99.90
10453;DHT22;5274;51.992;8.518;2022-08-18T14:25:43;34.80;99.90
10453;DHT22;5274;51.992;8.518;2022-08-18T14:28:29;34.80;99.90
10453;DHT22;5274;51.992;8.518;2022-08-18T14:30:56;35.70;99.90
10453;DHT22;5274;51.992;8.518;2022-08-18T14:33:24;36.30;99.90
10453;DHT22;5274;51.992;8.518;2022-08-18T14:35:50;36.80;99.90
10453;DHT22;5274;51.992;8.518;2022-08-18T14:38:16;37.20;99.90
10453;DHT22;5274;51.992;8.518;2022-08-18T14:40:43;36.10;99.90
10453;DHT22;5274;51.992;8.518;2022-08-18T14:43:10;34.30;99.90
10453;DHT22;5274;51.992;8.518;2022-08-18T14:45:35;33.50;99.90
10453;DHT22;5274;51.992;8.518;2022-08-18T14:48:05;32.20;99.90
10453;DHT22;5274;51.992;8.518;2022-08-18T14:50:31;31.80;99.90
10453;DHT22;5274;51.992;8.518;2022-08-18T14:52:56;33.60;99.90
10453;DHT22;5274;51.992;8.518;2022-08-18T14:55:22;33.90;99.90
10453;DHT22;5274;51.992;8.518;2022-08-18T14:57:47;34.60;99.90
10453;DHT22;5274;51.992;8.518;2022-08-18T15:00:17;33.10;99.90
10453;DHT22;5274;51.992;8.518;2022-08-18T15:02:45;33.80;99.90
10453;DHT22;5274;51.992;8.518;2022-08-18T15:05:12;33.60;99.90
10453;DHT22;5274;51.992;8.518;2022-08-18T15:07:37;33.30;99.90
10453;DHT22;5274;51.992;8.518;2022-08-18T15:10:08;34.50;99.90
10453;DHT22;5274;51.992;8.518;2022-08-18T15:12:35;34.10;99.90
10453;DHT22;5274;51.992;8.518;2022-08-18T15:15:01;34.20;99.90
10453;DHT22;5274;51.992;8.518;2022-08-18T15:17:27;33.60;99.90
10453;DHT22;5274;51.992;8.518;2022-08-18T15:19:53;32.80;99.90
10453;DHT22;5274;51.992;8.518;2022-08-18T15:22:18;32.70;99.90
10453;DHT22;5274;51.992;8.518;2022-08-18T15:25:04;33.90;99.90
10453;DHT22;5274;51.992;8.518;2022-08-18T15:27:48;34.50;99.90
10453;DHT22;5274;51.992;8.518;2022-08-18T15:30:14;34.20;99.90
10453;DHT22;5274;51.992;8.518;2022-08-18T15:32:45;34.60;99.90
10453;DHT22;5274;51.992;8.518;2022-08-18T15:35:12;33.60;99.90
10453;DHT22;5274;51.992;8.518;2022-08-18T15:37:41;32.80;99.90
10453;DHT22;5274;51.992;8.518;2022-08-18T15:40:14;31.80;99.90
10453;DHT22;5274;51.992;8.518;2022-08-18T15:42:47;32.30;99.90
10453;DHT22;5274;51.992;8.518;2022-08-18T15:45:15;31.10;99.90
10453;DHT22;5274;51.992;8.518;2022-08-18T15:47:41;31.40;99.90
10453;DHT22;5274;51.992;8.518;2022-08-18T15:50:08;31.10;99.90
10453;DHT22;5274;51.992;8.518;2022-08-18T15:52:33;30.90;99.90
10453;DHT22;5274;51.992;8.518;2022-08-18T15:55:02;31.20;99.90
10453;DHT22;5274;51.992;8.518;2022-08-18T15:57:28;31.40;99.90
10453;DHT22;5274;51.992;8.518;2022-08-18T15:59:55;32.10;99.90
10453;DHT22;5274;51.992;8.518;2022-08-18T16:02:21;32.60;99.90
10453;DHT22;5274;51.992;8.518;2022-08-18T16:04:48;31.80;99.90
10453;DHT22;5274;51.992;8.518;2022-08-18T16:07:13;31.50;99.90
10453;DHT22;5274;51.992;8.518;2022-08-18T16:09:39;31.70;99.90
10453;DHT22;5274;51.992;8.518;2022-08-18T16:12:07;32.00;99.90
10453;DHT22;5274;51.992;8.518;2022-08-18T16:14:36;31.60;99.90
10453;DHT22;5274;51.992;8.518;2022-08-18T16:17:02;32.00;99.90
10453;DHT22;5274;51.992;8.518;2022-08-18T16:19:28;31.50;99.90
10453;DHT22;5274;51.992;8.518;2022-08-18T16:21:54;30.90;99.90
10453;DHT22;5274;51.992;8.518;2022-08-18T16:24:21;30.60;99.90
10453;DHT22;5274;51.992;8.518;2022-08-18T16:26:48;30.10;99.90
10453;DHT22;5274;51.992;8.518;2022-08-18T16:29:13;30.70;99.90
10453;DHT22;5274;51.992;8.518;2022-08-18T16:31:39;31.20;99.90
10453;DHT22;5274;51.992;8.518;2022-08-18T16:34:05;30.00;99.90
10453;DHT22;5274;51.992;8.518;2022-08-18T16:36:30;30.00;99.90
10453;DHT22;5274;51.992;8.518;2022-08-18T16:38:56;29.50;99.90
10453;DHT22;5274;51.992;8.518;2022-08-18T16:41:21;29.60;99.90
10453;DHT22;5274;51.992;8.518;2022-08-18T16:43:48;29.90;99.90
10453;DHT22;5274;51.992;8.518;2022-08-18T16:46:19;29.80;99.90
10453;DHT22;5274;51.992;8.518;2022-08-18T16:48:47;29.50;99.90
10453;DHT22;5274;51.992;8.518;2022-08-18T16:51:19;29.50;99.90
10453;DHT22;5274;51.992;8.518;2022-08-18T16:53:47;29.60;99.90
10453;DHT22;5274;51.992;8.518;2022-08-18T16:56:16;29.00;99.90
10453;DHT22;5274;51.992;8.518;2022-08-18T16:58:43;28.80;99.90
10453;DHT22;5274;51.992;8.518;2022-08-18T17:01:27;28.40;99.90
10453;DHT22;5274;51.992;8.518;2022-08-18T17:04:13;28.40;99.90
10453;DHT22;5274;51.992;8.518;2022-08-18T17:06:39;28.30;99.90
10453;DHT22;5274;51.992;8.518;2022-08-18T17:09:06;28.70;99.90
10453;DHT22;5274;51.992;8.518;2022-08-18T17:11:35;28.70;99.90
10453;DHT22;5274;51.992;8.518;2022-08-18T17:14:01;28.70;99.90
10453;DHT22;5274;51.992;8.518;2022-08-18T17:16:28;28.90;99.90
10453;DHT22;5274;51.992;8.518;2022-08-18T17:18:55;28.90;99.90
10453;DHT22;5274;51.992;8.518;2022-08-18T17:21:24;28.60;99.90
10453;DHT22;5274;51.992;8.518;2022-08-18T17:23:51;28.30;99.90
10453;DHT22;5274;51.992;8.518;2022-08-18T17:32:04;27.50;99.90
10453;DHT22;5274;51.992;8.518;2022-08-18T17:34:37;27.80;99.90
10453;DHT22;5274;51.992;8.518;2022-08-18T17:37:10;28.00;99.90
10453;DHT22;5274;51.992;8.518;2022-08-18T17:39:42;27.80;99.90
10453;DHT22;5274;51.992;8.518;2022-08-18T17:42:09;27.40;99.90
10453;DHT22;5274;51.992;8.518;2022-08-18T17:44:55;27.10;99.90
10453;DHT22;5274;51.992;8.518;2022-08-18T17:50:29;26.80;99.90
10453;DHT22;5274;51.992;8.518;2022-08-18T17:53:15;26.60;99.90
10453;DHT22;5274;51.992;8.518;2022-08-18T17:55:50;26.60;99.90
10453;DHT22;5274;51.992;8.518;2022-08-18T17:58:28;26.70;99.90
10453;DHT22;5274;51.992;8.518;2022-08-18T18:00:53;27.00;99.90
10453;DHT22;5274;51.992;8.518;2022-08-18T18:03:19;26.70;99.90
10453;DHT22;5274;51.992;8.518;2022-08-18T18:05:57;26.60;99.90
10453;DHT22;5274;51.992;8.518;2022-08-18T18:08:57;26.60;99.90
10453;DHT22;5274;51.992;8.518;2022-08-18T18:11:29;26.50;99.90
10453;DHT22;5274;51.992;8.518;2022-08-18T18:13:58;26.50;99.90
10453;DHT22;5274;51.992;8.518;2022-08-18T18:16:30;26.40;99.90